sensor_id;sensor_type;location;lat;lon;timestamp;temperature;humidity
326;DHT22;150;52.352;14.058;2024-03-23T00:54:58;9.80;40.70
326;DHT22;150;52.352;14.058;2024-03-23T00:57:24;9.80;41.00
326;DHT22;150;52.352;14.058;2024-03-23T00:59:50;9.80;41.20
326;DHT22;150;52.352;14.058;2024-03-23T01:02:16;9.70;40.90
326;DHT22;150;52.352;14.058;2024-03-23T01:04:44;9.80;41.20
326;DHT22;150;52.352;14.058;2024-03-23T01:07:09;9.70;40.60
326;DHT22;150;52.352;14.058;2024-03-23T01:09:37;9.70;40.40
326;DHT22;150;52.352;14.058;2024-03-23T01:12:04;9.70;40.90
326;DHT22;150;52.352;14.058;2024-03-23T01:14:31;9.70;41.10
326;DHT22;150;52.352;14.058;2024-03-23T01:16:57;9.70;41.40
326;DHT22;150;52.352;14.058;2024-03-23T01:19:23;9.70;41.10
326;DHT22;150;52.352;14.058;2024-03-23T01:21:49;9.70;41.10
326;DHT22;150;52.352;14.058;2024-03-23T01:24:16;9.70;41.10
326;DHT22;150;52.352;14.058;2024-03-23T01:26:43;9.70;41.00
326;DHT22;150;52.352;14.058;2024-03-23T01:29:09;9.70;40.80
326;DHT22;150;52.352;14.058;2024-03-23T01:31:35;9.70;40.50
326;DHT22;150;52.352;14.058;2024-03-23T01:34:01;9.70;40.20
326;DHT22;150;52.352;14.058;2024-03-23T01:36:28;9.70;40.10
326;DHT22;150;52.352;14.058;2024-03-23T01:38:55;9.70;39.80
326;DHT22;150;52.352;14.058;2024-03-23T01:41:20;9.60;39.90
326;DHT22;150;52.352;14.058;2024-03-23T01:43:48;9.70;40.20
326;DHT22;150;52.352;14.058;2024-03-23T01:46:14;9.70;40.40
326;DHT22;150;52.352;14.058;2024-03-23T01:48:41;9.60;39.50
326;DHT22;150;52.352;14.058;2024-03-23T01:51:07;9.60;39.90
326;DHT22;150;52.352;14.058;2024-03-23T01:53:34;9.60;40.00
326;DHT22;150;52.352;14.058;2024-03-23T01:56:00;9.60;40.20
326;DHT22;150;52.352;14.058;2024-03-23T01:58:28;9.60;40.40
326;DHT22;150;52.352;14.058;2024-03-23T02:00:57;9.60;40.20
326;DHT22;150;52.352;14.058;2024-03-23T02:03:24;9.60;40.00
326;DHT22;150;52.352;14.058;2024-03-23T02:05:50;9.50;39.70
326;DHT22;150;52.352;14.058;2024-03-23T02:08:17;9.50;39.60
326;DHT22;150;52.352;14.058;2024-03-23T02:10:43;9.40;40.30
326;DHT22;150;52.352;14.058;2024-03-23T02:13:10;9.30;40.90
326;DHT22;150;52.352;14.058;2024-03-23T02:15:36;9.30;41.30
326;DHT22;150;52.352;14.058;2024-03-23T02:18:04;9.30;41.60
326;DHT22;150;52.352;14.058;2024-03-23T02:20:30;9.30;41.60
326;DHT22;150;52.352;14.058;2024-03-23T02:22:58;9.30;41.70
326;DHT22;150;52.352;14.058;2024-03-23T02:25:23;9.40;41.60
326;DHT22;150;52.352;14.058;2024-03-23T02:27:50;9.40;41.60
326;DHT22;150;52.352;14.058;2024-03-23T02:30:16;9.40;41.50
326;DHT22;150;52.352;14.058;2024-03-23T02:32:42;9.50;41.20
326;DHT22;150;52.352;14.058;2024-03-23T02:35:08;9.50;41.20
326;DHT22;150;52.352;14.058;2024-03-23T02:37:34;9.50;41.10
326;DHT22;150;52.352;14.058;2024-03-23T02:40:02;9.60;41.20
326;DHT22;150;52.352;14.058;2024-03-23T02:42:28;9.60;41.30
326;DHT22;150;52.352;14.058;2024-03-23T02:44:54;9.60;41.20
326;DHT22;150;52.352;14.058;2024-03-23T02:47:21;9.60;41.30
326;DHT22;150;52.352;14.058;2024-03-23T02:49:46;9.60;41.10
326;DHT22;150;52.352;14.058;2024-03-23T02:52:13;9.60;41.00
326;DHT22;150;52.352;14.058;2024-03-23T02:54:39;9.60;40.90
326;DHT22;150;52.352;14.058;2024-03-23T02:57:09;9.60;40.80
326;DHT22;150;52.352;14.058;2024-03-23T02:59:34;9.60;40.60
326;DHT22;150;52.352;14.058;2024-03-23T03:02:01;9.60;40.60
326;DHT22;150;52.352;14.058;2024-03-23T03:04:26;9.60;40.60
326;DHT22;150;52.352;14.058;2024-03-23T03:06:53;9.60;40.60
326;DHT22;150;52.352;14.058;2024-03-23T03:09:19;9.60;40.60
326;DHT22;150;52.352;14.058;2024-03-23T03:11:46;9.60;40.30
326;DHT22;150;52.352;14.058;2024-03-23T03:14:13;9.60;40.50
326;DHT22;150;52.352;14.058;2024-03-23T03:16:40;9.60;40.50
326;DHT22;150;52.352;14.058;2024-03-23T03:19:06;9.60;40.60
326;DHT22;150;52.352;14.058;2024-03-23T03:21:32;9.60;40.20
326;DHT22;150;52.352;14.058;2024-03-23T03:23:58;9.60;40.30
326;DHT22;150;52.352;14.058;2024-03-23T03:26:24;9.50;40.20
326;DHT22;150;52.352;14.058;2024-03-23T03:28:50;9.50;41.00
326;DHT22;150;52.352;14.058;2024-03-23T03:31:18;9.50;40.10
326;DHT22;150;52.352;14.058;2024-03-23T03:33:44;9.50;40.10
326;DHT22;150;52.352;14.058;2024-03-23T03:36:11;9.50;40.10
326;DHT22;150;52.352;14.058;2024-03-23T03:38:37;9.50;40.40
326;DHT22;150;52.352;14.058;2024-03-23T03:41:04;9.50;40.50
326;DHT22;150;52.352;14.058;2024-03-23T03:43:31;9.50;40.30
326;DHT22;150;52.352;14.058;2024-03-23T03:45:59;9.50;40.90
326;DHT22;150;52.352;14.058;2024-03-23T03:48:27;9.60;40.40
326;DHT22;150;52.352;14.058;2024-03-23T03:50:53;9.50;40.20
326;DHT22;150;52.352;14.058;2024-03-23T03:53:19;9.50;40.20
326;DHT22;150;52.352;14.058;2024-03-23T03:55:45;9.50;40.20
326;DHT22;150;52.352;14.058;2024-03-23T03:58:11;9.50;40.20
326;DHT22;150;52.352;14.058;2024-03-23T04:00:38;9.60;40.30
326;DHT22;150;52.352;14.058;2024-03-23T04:03:04;9.50;40.40
326;DHT22;150;52.352;14.058;2024-03-23T04:05:32;9.60;40.50
326;DHT22;150;52.352;14.058;2024-03-23T04:07:58;9.60;40.40
326;DHT22;150;52.352;14.058;2024-03-23T04:10:24;9.60;40.20
326;DHT22;150;52.352;14.058;2024-03-23T04:12:50;9.50;40.30
326;DHT22;150;52.352;14.058;2024-03-23T04:15:17;9.50;40.30
326;DHT22;150;52.352;14.058;2024-03-23T04:17:42;9.50;40.20
326;DHT22;150;52.352;14.058;2024-03-23T04:20:10;9.40;40.20
326;DHT22;150;52.352;14.058;2024-03-23T04:22:38;9.50;40.30
326;DHT22;150;52.352;14.058;2024-03-23T04:25:05;9.50;40.20
326;DHT22;150;52.352;14.058;2024-03-23T04:27:32;9.50;40.10
326;DHT22;150;52.352;14.058;2024-03-23T04:29:58;9.50;39.90
326;DHT22;150;52.352;14.058;2024-03-23T04:32:26;9.40;40.00
326;DHT22;150;52.352;14.058;2024-03-23T04:34:53;9.40;40.20
326;DHT22;150;52.352;14.058;2024-03-23T04:37:19;9.40;40.20
326;DHT22;150;52.352;14.058;2024-03-23T04:39:47;9.40;40.50
326;DHT22;150;52.352;14.058;2024-03-23T04:42:15;9.40;40.60
326;DHT22;150;52.352;14.058;2024-03-23T04:44:42;9.40;40.40
326;DHT22;150;52.352;14.058;2024-03-23T04:47:08;9.40;40.50
326;DHT22;150;52.352;14.058;2024-03-23T04:49:35;9.40;40.80
326;DHT22;150;52.352;14.058;2024-03-23T04:52:03;9.30;40.80
326;DHT22;150;52.352;14.058;2024-03-23T04:54:29;9.40;40.80
326;DHT22;150;52.352;14.058;2024-03-23T04:56:59;9.30;40.50
326;DHT22;150;52.352;14.058;2024-03-23T04:59:25;9.30;40.70
326;DHT22;150;52.352;14.058;2024-03-23T05:01:51;9.20;40.60
326;DHT22;150;52.352;14.058;2024-03-23T05:04:17;9.20;41.70
326;DHT22;150;52.352;14.058;2024-03-23T05:06:43;9.20;41.40
326;DHT22;150;52.352;14.058;2024-03-23T05:09:10;9.20;41.50
326;DHT22;150;52.352;14.058;2024-03-23T05:11:37;9.20;41.50
326;DHT22;150;52.352;14.058;2024-03-23T05:14:05;9.30;41.60
326;DHT22;150;52.352;14.058;2024-03-23T05:16:30;9.20;41.30
326;DHT22;150;52.352;14.058;2024-03-23T05:18:57;9.30;41.20
326;DHT22;150;52.352;14.058;2024-03-23T05:21:23;9.30;41.10
326;DHT22;150;52.352;14.058;2024-03-23T05:23:51;9.30;41.10
326;DHT22;150;52.352;14.058;2024-03-23T05:26:17;9.20;40.80
326;DHT22;150;52.352;14.058;2024-03-23T05:28:44;9.20;41.00
326;DHT22;150;52.352;14.058;2024-03-23T05:31:11;9.30;41.20
326;DHT22;150;52.352;14.058;2024-03-23T05:33:37;9.30;41.00
326;DHT22;150;52.352;14.058;2024-03-23T05:36:04;9.30;41.00
326;DHT22;150;52.352;14.058;2024-03-23T05:38:31;9.40;41.20
326;DHT22;150;52.352;14.058;2024-03-23T05:40:57;9.40;41.20
326;DHT22;150;52.352;14.058;2024-03-23T05:43:25;9.30;40.70
326;DHT22;150;52.352;14.058;2024-03-23T05:45:54;9.20;41.10
326;DHT22;150;52.352;14.058;2024-03-23T05:48:22;9.20;41.20
326;DHT22;150;52.352;14.058;2024-03-23T05:50:48;9.20;40.70
326;DHT22;150;52.352;14.058;2024-03-23T05:53:15;9.00;41.30
326;DHT22;150;52.352;14.058;2024-03-23T05:55:41;9.00;42.10
326;DHT22;150;52.352;14.058;2024-03-23T05:58:07;9.10;42.80
326;DHT22;150;52.352;14.058;2024-03-23T06:00:33;9.10;42.80
326;DHT22;150;52.352;14.058;2024-03-23T06:03:00;9.10;42.80
326;DHT22;150;52.352;14.058;2024-03-23T06:05:27;9.20;42.90
326;DHT22;150;52.352;14.058;2024-03-23T06:07:53;9.20;42.60
326;DHT22;150;52.352;14.058;2024-03-23T06:10:19;9.20;42.60
326;DHT22;150;52.352;14.058;2024-03-23T06:12:46;9.20;42.60
326;DHT22;150;52.352;14.058;2024-03-23T06:15:12;9.30;42.60
326;DHT22;150;52.352;14.058;2024-03-23T06:17:38;9.30;42.70
326;DHT22;150;52.352;14.058;2024-03-23T06:20:05;9.30;42.70
326;DHT22;150;52.352;14.058;2024-03-23T06:22:33;9.30;42.30
326;DHT22;150;52.352;14.058;2024-03-23T06:24:59;9.40;42.30
326;DHT22;150;52.352;14.058;2024-03-23T06:27:26;9.40;41.80
326;DHT22;150;52.352;14.058;2024-03-23T06:29:52;9.40;41.30
326;DHT22;150;52.352;14.058;2024-03-23T06:32:18;9.40;41.20
326;DHT22;150;52.352;14.058;2024-03-23T06:34:44;9.50;41.20
326;DHT22;150;52.352;14.058;2024-03-23T06:37:11;9.50;40.90
326;DHT22;150;52.352;14.058;2024-03-23T06:39:38;9.50;41.10
326;DHT22;150;52.352;14.058;2024-03-23T06:42:05;9.50;40.60
326;DHT22;150;52.352;14.058;2024-03-23T06:44:31;9.50;41.00
326;DHT22;150;52.352;14.058;2024-03-23T06:46:57;9.50;40.60
326;DHT22;150;52.352;14.058;2024-03-23T06:49:23;9.50;40.70
326;DHT22;150;52.352;14.058;2024-03-23T06:51:50;9.10;39.50
326;DHT22;150;52.352;14.058;2024-03-23T06:54:16;8.80;40.30
326;DHT22;150;52.352;14.058;2024-03-23T06:56:45;8.60;40.30
326;DHT22;150;52.352;14.058;2024-03-23T06:59:11;8.50;40.90
326;DHT22;150;52.352;14.058;2024-03-23T07:01:37;8.20;41.30
326;DHT22;150;52.352;14.058;2024-03-23T07:04:03;8.10;42.10
326;DHT22;150;52.352;14.058;2024-03-23T07:06:30;8.00;43.00
326;DHT22;150;52.352;14.058;2024-03-23T07:08:56;7.80;44.40
326;DHT22;150;52.352;14.058;2024-03-23T07:11:22;7.80;45.30
326;DHT22;150;52.352;14.058;2024-03-23T07:13:53;7.80;45.90
326;DHT22;150;52.352;14.058;2024-03-23T07:16:20;7.70;45.70
326;DHT22;150;52.352;14.058;2024-03-23T07:18:46;7.70;46.60
326;DHT22;150;52.352;14.058;2024-03-23T07:21:14;7.80;46.70
326;DHT22;150;52.352;14.058;2024-03-23T07:23:42;7.70;46.10
326;DHT22;150;52.352;14.058;2024-03-23T07:26:10;7.60;45.80
326;DHT22;150;52.352;14.058;2024-03-23T07:28:36;7.60;46.00
326;DHT22;150;52.352;14.058;2024-03-23T07:31:06;7.40;46.60
326;DHT22;150;52.352;14.058;2024-03-23T07:33:32;7.40;47.60
326;DHT22;150;52.352;14.058;2024-03-23T07:35:59;7.50;47.90
326;DHT22;150;52.352;14.058;2024-03-23T07:38:26;7.50;47.40
326;DHT22;150;52.352;14.058;2024-03-23T07:41:01;7.40;47.30
326;DHT22;150;52.352;14.058;2024-03-23T07:43:28;7.40;48.60
326;DHT22;150;52.352;14.058;2024-03-23T07:45:54;7.30;47.10
326;DHT22;150;52.352;14.058;2024-03-23T07:48:22;7.30;47.80
326;DHT22;150;52.352;14.058;2024-03-23T07:50:57;7.20;47.80
326;DHT22;150;52.352;14.058;2024-03-23T07:53:24;7.20;47.30
326;DHT22;150;52.352;14.058;2024-03-23T07:55:53;7.30;47.70
326;DHT22;150;52.352;14.058;2024-03-23T07:58:20;7.30;47.30
326;DHT22;150;52.352;14.058;2024-03-23T08:00:46;7.30;47.30
326;DHT22;150;52.352;14.058;2024-03-23T08:03:12;7.20;46.60
326;DHT22;150;52.352;14.058;2024-03-23T08:05:39;7.10;47.00
326;DHT22;150;52.352;14.058;2024-03-23T08:08:06;7.10;47.80
326;DHT22;150;52.352;14.058;2024-03-23T08:10:32;7.20;48.20
326;DHT22;150;52.352;14.058;2024-03-23T08:12:58;7.10;47.40
326;DHT22;150;52.352;14.058;2024-03-23T08:15:24;7.00;47.70
326;DHT22;150;52.352;14.058;2024-03-23T08:17:50;6.90;48.30
326;DHT22;150;52.352;14.058;2024-03-23T08:20:16;6.80;48.90
326;DHT22;150;52.352;14.058;2024-03-23T08:22:44;6.80;49.80
326;DHT22;150;52.352;14.058;2024-03-23T08:25:10;6.70;48.40
326;DHT22;150;52.352;14.058;2024-03-23T08:27:36;6.50;49.00
326;DHT22;150;52.352;14.058;2024-03-23T08:30:02;6.50;49.90
326;DHT22;150;52.352;14.058;2024-03-23T08:32:28;6.40;50.40
326;DHT22;150;52.352;14.058;2024-03-23T08:34:54;6.50;50.70
326;DHT22;150;52.352;14.058;2024-03-23T08:37:21;6.50;51.30
326;DHT22;150;52.352;14.058;2024-03-23T08:39:48;6.60;51.20
326;DHT22;150;52.352;14.058;2024-03-23T08:42:17;6.40;49.90
326;DHT22;150;52.352;14.058;2024-03-23T08:44:42;6.40;50.90
326;DHT22;150;52.352;14.058;2024-03-23T08:47:11;6.40;51.10
326;DHT22;150;52.352;14.058;2024-03-23T08:49:37;6.50;51.70
326;DHT22;150;52.352;14.058;2024-03-23T08:52:04;6.40;51.50
326;DHT22;150;52.352;14.058;2024-03-23T08:54:30;6.50;51.80
326;DHT22;150;52.352;14.058;2024-03-23T08:56:58;6.50;51.10
326;DHT22;150;52.352;14.058;2024-03-23T08:59:24;6.50;51.70
326;DHT22;150;52.352;14.058;2024-03-23T09:01:51;6.70;51.70
326;DHT22;150;52.352;14.058;2024-03-23T09:04:16;6.60;50.00
326;DHT22;150;52.352;14.058;2024-03-23T09:06:43;6.60;49.70
326;DHT22;150;52.352;14.058;2024-03-23T09:09:08;6.50;49.30
326;DHT22;150;52.352;14.058;2024-03-23T09:11:35;6.40;49.80
326;DHT22;150;52.352;14.058;2024-03-23T09:14:02;6.40;49.80
326;DHT22;150;52.352;14.058;2024-03-23T09:16:29;6.30;48.90
326;DHT22;150;52.352;14.058;2024-03-23T09:18:54;6.30;49.60
326;DHT22;150;52.352;14.058;2024-03-23T09:21:21;6.30;48.90
326;DHT22;150;52.352;14.058;2024-03-23T09:23:47;6.30;48.70
326;DHT22;150;52.352;14.058;2024-03-23T09:26:14;6.20;46.60
326;DHT22;150;52.352;14.058;2024-03-23T09:28:40;6.00;45.70
326;DHT22;150;52.352;14.058;2024-03-23T09:31:08;6.00;47.40
326;DHT22;150;52.352;14.058;2024-03-23T09:33:35;5.90;47.10
326;DHT22;150;52.352;14.058;2024-03-23T09:36:03;6.00;49.20
326;DHT22;150;52.352;14.058;2024-03-23T09:38:29;6.10;50.30
326;DHT22;150;52.352;14.058;2024-03-23T09:40:57;6.30;50.90
326;DHT22;150;52.352;14.058;2024-03-23T09:43:23;6.40;51.00
326;DHT22;150;52.352;14.058;2024-03-23T09:45:50;6.60;51.60
326;DHT22;150;52.352;14.058;2024-03-23T09:48:17;6.70;51.90
326;DHT22;150;52.352;14.058;2024-03-23T09:50:44;6.90;51.60
326;DHT22;150;52.352;14.058;2024-03-23T09:53:11;6.90;47.10
326;DHT22;150;52.352;14.058;2024-03-23T09:55:39;6.90;47.20
326;DHT22;150;52.352;14.058;2024-03-23T09:58:05;7.00;47.90
326;DHT22;150;52.352;14.058;2024-03-23T10:00:31;7.00;47.80
326;DHT22;150;52.352;14.058;2024-03-23T10:02:58;7.10;48.50
326;DHT22;150;52.352;14.058;2024-03-23T10:05:29;7.10;47.00
326;DHT22;150;52.352;14.058;2024-03-23T10:07:54;6.90;43.10
326;DHT22;150;52.352;14.058;2024-03-23T10:10:21;6.40;43.30
326;DHT22;150;52.352;14.058;2024-03-23T10:12:49;6.10;44.70
326;DHT22;150;52.352;14.058;2024-03-23T10:15:18;6.00;46.00
326;DHT22;150;52.352;14.058;2024-03-23T10:17:45;5.90;46.20
326;DHT22;150;52.352;14.058;2024-03-23T10:20:11;5.80;47.00
326;DHT22;150;52.352;14.058;2024-03-23T10:22:39;5.80;47.20
326;DHT22;150;52.352;14.058;2024-03-23T10:25:08;5.80;47.40
326;DHT22;150;52.352;14.058;2024-03-23T10:27:35;5.70;47.80
326;DHT22;150;52.352;14.058;2024-03-23T10:30:08;5.70;48.40
326;DHT22;150;52.352;14.058;2024-03-23T10:32:35;5.70;48.50
326;DHT22;150;52.352;14.058;2024-03-23T10:35:14;5.60;49.10
326;DHT22;150;52.352;14.058;2024-03-23T10:37:42;5.60;49.30
326;DHT22;150;52.352;14.058;2024-03-23T10:40:11;5.70;49.50
326;DHT22;150;52.352;14.058;2024-03-23T10:42:38;5.70;49.10
326;DHT22;150;52.352;14.058;2024-03-23T10:45:05;5.80;48.60
326;DHT22;150;52.352;14.058;2024-03-23T10:47:31;5.90;47.40
326;DHT22;150;52.352;14.058;2024-03-23T10:49:57;5.70;45.20
326;DHT22;150;52.352;14.058;2024-03-23T10:52:24;5.70;47.10
326;DHT22;150;52.352;14.058;2024-03-23T10:54:52;5.70;47.20
326;DHT22;150;52.352;14.058;2024-03-23T10:57:23;5.70;47.30
326;DHT22;150;52.352;14.058;2024-03-23T10:59:51;5.70;45.70
326;DHT22;150;52.352;14.058;2024-03-23T11:02:19;5.50;45.60
326;DHT22;150;52.352;14.058;2024-03-23T11:04:45;5.40;45.90
326;DHT22;150;52.352;14.058;2024-03-23T11:07:30;5.50;46.50
326;DHT22;150;52.352;14.058;2024-03-23T11:09:57;5.50;46.50
326;DHT22;150;52.352;14.058;2024-03-23T11:12:29;5.50;44.90
326;DHT22;150;52.352;14.058;2024-03-23T11:14:59;5.50;45.90
326;DHT22;150;52.352;14.058;2024-03-23T11:17:27;5.70;46.60
326;DHT22;150;52.352;14.058;2024-03-23T11:19:53;5.80;45.40
326;DHT22;150;52.352;14.058;2024-03-23T11:22:41;5.70;43.60
326;DHT22;150;52.352;14.058;2024-03-23T11:25:17;5.70;44.70
326;DHT22;150;52.352;14.058;2024-03-23T11:27:44;5.80;44.80
326;DHT22;150;52.352;14.058;2024-03-23T11:30:12;5.70;43.00
326;DHT22;150;52.352;14.058;2024-03-23T11:32:39;5.70;44.00
326;DHT22;150;52.352;14.058;2024-03-23T11:35:06;5.80;45.20
326;DHT22;150;52.352;14.058;2024-03-23T11:37:32;6.00;44.90
326;DHT22;150;52.352;14.058;2024-03-23T11:39:58;6.10;44.80
326;DHT22;150;52.352;14.058;2024-03-23T11:42:26;6.10;43.00
326;DHT22;150;52.352;14.058;2024-03-23T11:44:52;6.20;43.20
326;DHT22;150;52.352;14.058;2024-03-23T11:47:19;6.20;42.50
326;DHT22;150;52.352;14.058;2024-03-23T11:49:44;6.30;43.30
326;DHT22;150;52.352;14.058;2024-03-23T11:52:11;6.40;42.90
326;DHT22;150;52.352;14.058;2024-03-23T11:54:39;6.40;42.70
326;DHT22;150;52.352;14.058;2024-03-23T11:57:08;6.50;42.80
326;DHT22;150;52.352;14.058;2024-03-23T11:59:36;6.50;40.20
326;DHT22;150;52.352;14.058;2024-03-23T12:02:06;6.50;41.10
326;DHT22;150;52.352;14.058;2024-03-23T12:04:32;6.50;40.90
326;DHT22;150;52.352;14.058;2024-03-23T12:07:12;6.40;40.30
326;DHT22;150;52.352;14.058;2024-03-23T12:09:38;6.40;40.90
326;DHT22;150;52.352;14.058;2024-03-23T12:12:07;6.30;40.10
326;DHT22;150;52.352;14.058;2024-03-23T12:14:34;6.30;40.70
326;DHT22;150;52.352;14.058;2024-03-23T12:17:08;6.40;41.40
326;DHT22;150;52.352;14.058;2024-03-23T12:19:34;6.40;39.90
326;DHT22;150;52.352;14.058;2024-03-23T12:22:00;6.40;40.40
326;DHT22;150;52.352;14.058;2024-03-23T12:24:27;6.40;40.30
326;DHT22;150;52.352;14.058;2024-03-23T12:26:54;6.50;40.90
326;DHT22;150;52.352;14.058;2024-03-23T12:29:20;6.50;41.00
326;DHT22;150;52.352;14.058;2024-03-23T12:31:48;6.70;41.70
326;DHT22;150;52.352;14.058;2024-03-23T12:34:14;6.90;41.20
326;DHT22;150;52.352;14.058;2024-03-23T12:36:40;6.90;40.20
326;DHT22;150;52.352;14.058;2024-03-23T12:39:06;7.00;40.20
326;DHT22;150;52.352;14.058;2024-03-23T12:41:32;7.10;40.30
326;DHT22;150;52.352;14.058;2024-03-23T12:43:58;7.10;38.40
326;DHT22;150;52.352;14.058;2024-03-23T12:46:25;7.20;39.30
326;DHT22;150;52.352;14.058;2024-03-23T12:48:52;7.30;39.80
326;DHT22;150;52.352;14.058;2024-03-23T12:51:18;7.40;39.30
326;DHT22;150;52.352;14.058;2024-03-23T12:53:44;7.50;39.20
326;DHT22;150;52.352;14.058;2024-03-23T12:56:11;7.60;38.80
326;DHT22;150;52.352;14.058;2024-03-23T12:58:37;7.70;38.50
326;DHT22;150;52.352;14.058;2024-03-23T13:01:04;7.70;37.50
326;DHT22;150;52.352;14.058;2024-03-23T13:03:31;7.80;38.30
326;DHT22;150;52.352;14.058;2024-03-23T13:05:59;7.90;37.90
326;DHT22;150;52.352;14.058;2024-03-23T13:08:25;7.90;37.60
326;DHT22;150;52.352;14.058;2024-03-23T13:10:51;7.80;36.90
326;DHT22;150;52.352;14.058;2024-03-23T13:13:17;7.80;37.20
326;DHT22;150;52.352;14.058;2024-03-23T13:15:49;7.60;36.20
326;DHT22;150;52.352;14.058;2024-03-23T13:18:15;7.50;37.30
326;DHT22;150;52.352;14.058;2024-03-23T13:20:41;7.50;38.60
326;DHT22;150;52.352;14.058;2024-03-23T13:23:08;7.50;38.70
326;DHT22;150;52.352;14.058;2024-03-23T13:25:35;7.70;39.80
326;DHT22;150;52.352;14.058;2024-03-23T13:28:01;7.80;39.10
326;DHT22;150;52.352;14.058;2024-03-23T13:30:28;7.70;38.50
326;DHT22;150;52.352;14.058;2024-03-23T13:32:53;7.60;39.00
326;DHT22;150;52.352;14.058;2024-03-23T13:35:21;7.80;38.60
326;DHT22;150;52.352;14.058;2024-03-23T13:37:46;7.80;38.60
326;DHT22;150;52.352;14.058;2024-03-23T13:40:14;7.90;38.70
326;DHT22;150;52.352;14.058;2024-03-23T13:42:40;7.80;38.20
326;DHT22;150;52.352;14.058;2024-03-23T13:45:07;7.70;38.20
326;DHT22;150;52.352;14.058;2024-03-23T13:47:33;7.70;39.10
326;DHT22;150;52.352;14.058;2024-03-23T13:50:00;7.80;40.30
326;DHT22;150;52.352;14.058;2024-03-23T13:52:25;8.00;38.70
326;DHT22;150;52.352;14.058;2024-03-23T13:54:52;8.10;38.80
326;DHT22;150;52.352;14.058;2024-03-23T13:57:19;8.30;38.60
326;DHT22;150;52.352;14.058;2024-03-23T13:59:48;8.50;39.30
326;DHT22;150;52.352;14.058;2024-03-23T14:02:14;8.80;39.10
326;DHT22;150;52.352;14.058;2024-03-23T14:04:41;8.90;35.80
326;DHT22;150;52.352;14.058;2024-03-23T14:07:06;9.10;35.80
326;DHT22;150;52.352;14.058;2024-03-23T14:09:34;9.20;34.90
326;DHT22;150;52.352;14.058;2024-03-23T14:12:00;9.10;33.40
326;DHT22;150;52.352;14.058;2024-03-23T14:14:29;9.10;34.00
326;DHT22;150;52.352;14.058;2024-03-23T14:16:54;9.10;33.40
326;DHT22;150;52.352;14.058;2024-03-23T14:19:21;9.00;33.40
326;DHT22;150;52.352;14.058;2024-03-23T14:21:46;8.90;33.60
326;DHT22;150;52.352;14.058;2024-03-23T14:24:13;8.80;33.20
326;DHT22;150;52.352;14.058;2024-03-23T14:26:39;8.80;34.10
326;DHT22;150;52.352;14.058;2024-03-23T14:29:06;8.70;34.00
326;DHT22;150;52.352;14.058;2024-03-23T14:31:35;8.60;33.00
326;DHT22;150;52.352;14.058;2024-03-23T14:34:02;8.60;33.00
326;DHT22;150;52.352;14.058;2024-03-23T14:36:28;8.60;33.00
326;DHT22;150;52.352;14.058;2024-03-23T14:38:54;8.60;33.90
326;DHT22;150;52.352;14.058;2024-03-23T14:41:20;8.60;33.50
326;DHT22;150;52.352;14.058;2024-03-23T14:43:47;8.70;34.20
326;DHT22;150;52.352;14.058;2024-03-23T14:46:16;8.80;34.40
326;DHT22;150;52.352;14.058;2024-03-23T14:48:44;8.80;33.10
326;DHT22;150;52.352;14.058;2024-03-23T14:51:11;8.80;33.10
326;DHT22;150;52.352;14.058;2024-03-23T14:53:39;8.80;33.10
326;DHT22;150;52.352;14.058;2024-03-23T14:56:06;9.00;32.50
326;DHT22;150;52.352;14.058;2024-03-23T14:58:33;8.90;30.30
326;DHT22;150;52.352;14.058;2024-03-23T15:01:00;8.90;31.10
326;DHT22;150;52.352;14.058;2024-03-23T15:03:29;8.90;31.20
326;DHT22;150;52.352;14.058;2024-03-23T15:05:57;9.00;31.80
326;DHT22;150;52.352;14.058;2024-03-23T15:08:24;9.00;29.40
326;DHT22;150;52.352;14.058;2024-03-23T15:10:50;9.10;30.50
326;DHT22;150;52.352;14.058;2024-03-23T15:13:17;9.10;30.70
326;DHT22;150;52.352;14.058;2024-03-23T15:15:43;9.10;30.30
326;DHT22;150;52.352;14.058;2024-03-23T15:18:10;9.00;29.50
326;DHT22;150;52.352;14.058;2024-03-23T15:20:38;8.90;30.00
326;DHT22;150;52.352;14.058;2024-03-23T15:25:34;8.80;30.80
326;DHT22;150;52.352;14.058;2024-03-23T15:28:00;8.90;31.60
326;DHT22;150;52.352;14.058;2024-03-23T15:30:27;9.00;30.50
326;DHT22;150;52.352;14.058;2024-03-23T15:32:54;9.00;29.70
326;DHT22;150;52.352;14.058;2024-03-23T15:35:19;8.90;29.80
326;DHT22;150;52.352;14.058;2024-03-23T15:37:49;8.80;29.60
326;DHT22;150;52.352;14.058;2024-03-23T15:40:14;8.70;29.30
326;DHT22;150;52.352;14.058;2024-03-23T15:42:42;8.60;30.50
326;DHT22;150;52.352;14.058;2024-03-23T15:45:08;8.60;30.60
326;DHT22;150;52.352;14.058;2024-03-23T15:47:36;8.50;30.70
326;DHT22;150;52.352;14.058;2024-03-23T15:50:01;8.50;30.80
326;DHT22;150;52.352;14.058;2024-03-23T15:52:33;8.40;31.30
326;DHT22;150;52.352;14.058;2024-03-23T15:54:59;8.40;32.00
326;DHT22;150;52.352;14.058;2024-03-23T15:57:26;8.40;32.80
326;DHT22;150;52.352;14.058;2024-03-23T15:59:53;8.50;34.10
326;DHT22;150;52.352;14.058;2024-03-23T16:02:20;8.40;34.30
326;DHT22;150;52.352;14.058;2024-03-23T16:04:45;8.40;34.80
326;DHT22;150;52.352;14.058;2024-03-23T16:07:12;8.50;35.20
326;DHT22;150;52.352;14.058;2024-03-23T16:09:38;8.50;34.50
326;DHT22;150;52.352;14.058;2024-03-23T16:12:05;8.60;35.40
326;DHT22;150;52.352;14.058;2024-03-23T16:14:31;8.70;35.00
326;DHT22;150;52.352;14.058;2024-03-23T16:16:59;8.70;34.80
326;DHT22;150;52.352;14.058;2024-03-23T16:19:24;8.70;33.10
326;DHT22;150;52.352;14.058;2024-03-23T16:21:51;8.60;33.00
326;DHT22;150;52.352;14.058;2024-03-23T16:24:16;8.50;32.90
326;DHT22;150;52.352;14.058;2024-03-23T16:26:43;8.50;33.30
326;DHT22;150;52.352;14.058;2024-03-23T16:29:10;8.50;33.20
326;DHT22;150;52.352;14.058;2024-03-23T16:31:37;8.40;32.80
326;DHT22;150;52.352;14.058;2024-03-23T16:34:04;8.30;32.90
326;DHT22;150;52.352;14.058;2024-03-23T16:36:31;8.30;33.50
326;DHT22;150;52.352;14.058;2024-03-23T16:38:56;8.20;33.40
326;DHT22;150;52.352;14.058;2024-03-23T16:41:23;8.10;33.80
326;DHT22;150;52.352;14.058;2024-03-23T16:43:48;8.00;33.90
326;DHT22;150;52.352;14.058;2024-03-23T16:46:15;7.90;35.20
326;DHT22;150;52.352;14.058;2024-03-23T16:48:42;7.80;35.10
326;DHT22;150;52.352;14.058;2024-03-23T16:51:11;7.70;35.60
326;DHT22;150;52.352;14.058;2024-03-23T16:53:37;7.60;36.30
326;DHT22;150;52.352;14.058;2024-03-23T16:56:07;7.50;35.60
326;DHT22;150;52.352;14.058;2024-03-23T16:58:34;7.40;36.20
326;DHT22;150;52.352;14.058;2024-03-23T17:01:03;7.40;36.90
326;DHT22;150;52.352;14.058;2024-03-23T17:03:29;7.30;36.30
326;DHT22;150;52.352;14.058;2024-03-23T17:05:55;7.10;36.20
326;DHT22;150;52.352;14.058;2024-03-23T17:08:22;6.90;36.50
326;DHT22;150;52.352;14.058;2024-03-23T17:10:49;6.80;37.00
326;DHT22;150;52.352;14.058;2024-03-23T17:13:15;6.80;37.10
326;DHT22;150;52.352;14.058;2024-03-23T17:15:44;6.70;37.10
326;DHT22;150;52.352;14.058;2024-03-23T17:18:10;6.50;37.20
326;DHT22;150;52.352;14.058;2024-03-23T17:20:37;6.40;38.10
326;DHT22;150;52.352;14.058;2024-03-23T17:23:03;6.30;38.30
326;DHT22;150;52.352;14.058;2024-03-23T17:25:31;6.20;38.30
326;DHT22;150;52.352;14.058;2024-03-23T17:27:57;6.10;38.40